Map Display - EGJJ to EGKK
(last flight recorded 15-07-2020, 11:25 - Andrew Siddall)

Aircraft Weights    Units : Maximums
Passengers :   89  
Cargo : kg 7,981 kg
Suggested Fuel Load : kg 11,267 kg
 
     
 
Dry Operating : 21,049 kg    
Total Payload : 0 kg 7,981 kg
 
Take Off : 24,875 kg 35,833 kg
 
Expected Landing : 23,207 kg 34,000 kg

Scott Ford,  BA11 200,  G-ASJA,  .

Route Distance Previous
Flights
Average
Duration
Average
Fuel Flow
Average
Fuel Use
EGJJ - Jersey
EGKK - Gatwick, London
140 nm 5 00:48 2,158 kg/h 1,668 kg

Current weather :-
 
2020/07/15 18:09
TAF EGKK 151659Z 1518/1624 30007KT 9999 SCT030 PROB30
TEMPO 1603/1609 BKN014

Back to Virtual Airline